createdAt,value
2022-09-24T00:01:39.065Z,37.20
2022-09-24T00:04:12.344Z,37.78
2022-09-24T00:06:45.590Z,39.17
2022-09-24T00:09:19.540Z,41.13
2022-09-24T00:11:46.727Z,37.55
2022-09-24T00:14:14.106Z,37.97
2022-09-24T00:16:42.716Z,37.13
2022-09-24T00:19:11.452Z,38.13
2022-09-24T00:21:40.114Z,38.75
2022-09-24T00:24:36.297Z,34.53
2022-09-24T00:27:06.407Z,33.35
2022-09-24T00:29:35.930Z,31.80
2022-09-24T00:32:05.078Z,36.75
2022-09-24T00:34:32.109Z,37.10
2022-09-24T00:36:59.394Z,34.47
2022-09-24T00:39:26.525Z,32.85
2022-09-24T00:41:53.824Z,35.10
2022-09-24T00:44:44.834Z,30.42
2022-09-24T00:47:14.715Z,34.72
2022-09-24T00:49:42.229Z,30.55
2022-09-24T00:52:09.402Z,31.65
2022-09-24T00:54:37.311Z,32.50
2022-09-24T00:57:04.568Z,30.60
2022-09-24T00:59:31.549Z,30.10
2022-09-24T01:01:59.071Z,30.30
2022-09-24T01:04:28.499Z,31.35
2022-09-24T01:06:56.540Z,33.63
2022-09-24T01:09:26.177Z,30.60
2022-09-24T01:12:14.648Z,29.55
2022-09-24T01:15:22.958Z,31.60
2022-09-24T01:18:17.041Z,28.50
2022-09-24T01:20:54.028Z,32.30
2022-09-24T01:24:13.971Z,29.20
2022-09-24T01:27:14.341Z,27.70
2022-09-24T01:30:05.946Z,27.08
2022-09-24T01:32:49.541Z,30.38
2022-09-24T01:35:22.561Z,30.30
2022-09-24T01:38:01.647Z,33.58
2022-09-24T01:40:30.720Z,32.45
2022-09-24T01:43:00.086Z,34.65
2022-09-24T01:45:32.112Z,32.45
2022-09-24T01:48:02.488Z,33.20
2022-09-24T01:50:38.800Z,30.63
2022-09-24T01:53:17.552Z,45.28
2022-09-24T01:55:50.675Z,36.60
2022-09-24T01:58:23.928Z,35.70
2022-09-24T02:00:58.405Z,35.85
2022-09-24T02:03:35.127Z,35.65
2022-09-24T02:06:16.101Z,32.85
2022-09-24T02:08:48.155Z,35.47
2022-09-24T02:11:23.324Z,35.30
2022-09-24T02:13:51.392Z,38.47
2022-09-24T02:16:24.734Z,37.38
2022-09-24T02:18:56.985Z,40.35
2022-09-24T02:21:25.358Z,36.90
2022-09-24T02:23:58.293Z,39.83
2022-09-24T02:26:25.268Z,42.47
2022-09-24T02:28:52.391Z,42.45
2022-09-24T02:31:43.763Z,42.13
2022-09-24T02:34:22.438Z,42.25
2022-09-24T02:36:51.364Z,42.58
2022-09-24T02:39:19.143Z,39.42
2022-09-24T02:41:48.595Z,41.60
2022-09-24T02:44:16.952Z,44.47
2022-09-24T02:46:45.526Z,46.95
2022-09-24T02:49:14.572Z,44.53
2022-09-24T02:51:42.577Z,45.17
2022-09-24T02:54:11.092Z,45.90
2022-09-24T02:56:38.583Z,49.78
2022-09-24T02:59:06.256Z,52.00
2022-09-24T03:01:33.789Z,48.65
2022-09-24T03:04:01.788Z,49.83
2022-09-24T03:06:29.100Z,49.45
2022-09-24T03:08:56.296Z,51.63
2022-09-24T03:11:23.767Z,49.70
2022-09-24T03:13:51.155Z,47.88
2022-09-24T03:16:19.433Z,48.47
2022-09-24T03:18:49.898Z,50.35
2022-09-24T03:21:21.002Z,42.35
2022-09-24T03:23:47.963Z,39.05
2022-09-24T03:26:15.146Z,42.08
2022-09-24T03:28:42.214Z,40.83
2022-09-24T03:31:09.491Z,42.72
2022-09-24T03:33:48.233Z,39.13
2022-09-24T03:36:22.802Z,38.72
2022-09-24T03:38:55.446Z,41.63
2022-09-24T03:41:24.535Z,39.28
2022-09-24T03:43:51.566Z,34.22
2022-09-24T03:46:19.421Z,33.88
2022-09-24T03:48:47.567Z,32.85
2022-09-24T03:51:20.025Z,39.97
2022-09-24T03:53:48.120Z,34.85
2022-09-24T03:56:16.023Z,37.33
2022-09-24T03:58:47.599Z,33.10
2022-09-24T04:01:21.837Z,35.40
2022-09-24T04:03:50.468Z,30.42
2022-09-24T04:06:23.444Z,31.92
2022-09-24T04:08:53.147Z,31.50
2022-09-24T04:11:20.310Z,28.38
2022-09-24T04:13:47.227Z,29.38
2022-09-24T04:16:14.292Z,26.23
2022-09-24T04:18:41.304Z,28.63
2022-09-24T04:21:08.428Z,25.75
2022-09-24T04:23:35.612Z,30.02
2022-09-24T04:26:03.014Z,27.75
2022-09-24T04:28:30.958Z,24.42
2022-09-24T04:30:58.665Z,24.25
2022-09-24T04:33:25.607Z,26.50
2022-09-24T04:35:52.620Z,29.05
2022-09-24T04:38:21.208Z,26.25
2022-09-24T04:40:48.668Z,29.60
2022-09-24T04:43:16.116Z,27.70
2022-09-24T04:45:45.061Z,26.55
2022-09-24T04:48:12.699Z,22.10
2022-09-24T04:50:44.990Z,26.13
2022-09-24T04:53:14.301Z,26.88
2022-09-24T04:55:41.953Z,25.13
2022-09-24T04:58:09.823Z,26.77
2022-09-24T05:00:37.538Z,23.50
2022-09-24T05:03:04.797Z,23.33
2022-09-24T05:05:33.639Z,23.02
2022-09-24T05:08:01.767Z,21.70
2022-09-24T05:10:34.496Z,26.20
2022-09-24T05:13:02.159Z,25.45
2022-09-24T05:15:29.361Z,27.95
2022-09-24T05:17:56.511Z,23.63
2022-09-24T05:20:23.463Z,27.38
2022-09-24T05:22:50.941Z,24.52
2022-09-24T05:25:20.439Z,32.25
2022-09-24T05:27:50.494Z,27.38
2022-09-24T05:30:18.836Z,27.33
2022-09-24T05:32:47.118Z,26.95
2022-09-24T05:35:13.984Z,26.63
2022-09-24T05:37:41.191Z,26.77
2022-09-24T05:40:27.395Z,28.65
2022-09-24T05:43:04.219Z,26.88
2022-09-24T05:45:31.631Z,25.88
2022-09-24T05:48:00.091Z,27.13
2022-09-24T05:50:27.736Z,25.77
2022-09-24T05:52:54.945Z,26.52
2022-09-24T05:55:22.926Z,24.60
2022-09-24T05:57:49.967Z,28.00
2022-09-24T06:00:18.329Z,29.40
2022-09-24T06:02:45.559Z,25.65
2022-09-24T06:05:13.358Z,27.48
2022-09-24T06:07:40.279Z,27.20
2022-09-24T06:10:08.209Z,26.58
2022-09-24T06:12:35.443Z,26.65
2022-09-24T06:15:02.780Z,27.00
2022-09-24T06:17:31.449Z,26.30
2022-09-24T06:19:58.346Z,26.75
2022-09-24T06:22:28.560Z,27.48
2022-09-24T06:24:55.897Z,28.58
2022-09-24T06:27:22.836Z,28.45
2022-09-24T06:29:49.856Z,27.85
2022-09-24T06:32:18.801Z,27.88
2022-09-24T06:34:45.999Z,35.88
2022-09-24T06:37:13.197Z,28.27
2022-09-24T06:39:40.248Z,27.75
2022-09-24T06:42:07.385Z,30.15
2022-09-24T06:44:36.041Z,30.92
2022-09-24T06:47:03.838Z,26.67
2022-09-24T06:49:34.314Z,27.33
2022-09-24T06:52:02.532Z,27.08
2022-09-24T06:54:29.590Z,26.48
2022-09-24T06:56:56.740Z,24.48
2022-09-24T06:59:23.867Z,30.15
2022-09-24T07:01:50.953Z,29.98
2022-09-24T07:04:18.387Z,28.85
2022-09-24T07:07:03.777Z,29.60
2022-09-24T07:09:31.125Z,26.35
2022-09-24T07:12:04.855Z,30.48
2022-09-24T07:14:33.182Z,28.63
2022-09-24T07:17:00.325Z,25.42
2022-09-24T07:19:27.439Z,29.98
2022-09-24T07:21:54.554Z,26.98
2022-09-24T07:24:21.587Z,30.77
2022-09-24T07:26:49.861Z,28.10
2022-09-24T07:29:17.099Z,26.55
2022-09-24T07:31:44.212Z,24.58
2022-09-24T07:34:11.456Z,25.05
2022-09-24T07:36:38.667Z,27.00
2022-09-24T07:39:06.159Z,30.85
2022-09-24T07:41:38.630Z,24.50
2022-09-24T07:44:11.915Z,24.75
2022-09-24T07:46:39.126Z,22.27
2022-09-24T07:49:06.353Z,21.80
2022-09-24T07:51:33.395Z,24.85
2022-09-24T07:54:00.446Z,22.25
2022-09-24T07:56:27.604Z,25.42
2022-09-24T07:58:54.692Z,23.20
2022-09-24T08:01:21.822Z,20.48
2022-09-24T08:03:49.040Z,23.40
2022-09-24T08:06:16.113Z,24.60
2022-09-24T08:08:43.939Z,25.30
2022-09-24T08:11:13.577Z,22.90
2022-09-24T08:13:40.872Z,25.08
2022-09-24T08:16:08.016Z,20.73
2022-09-24T08:18:35.277Z,24.35
2022-09-24T08:21:11.998Z,26.95
2022-09-24T08:23:40.254Z,28.38
2022-09-24T08:26:07.977Z,22.95
2022-09-24T08:28:35.814Z,21.48
2022-09-24T08:31:08.996Z,23.48
2022-09-24T08:33:37.331Z,22.85
2022-09-24T08:36:08.467Z,25.73
2022-09-24T08:38:36.251Z,22.70
2022-09-24T08:41:12.404Z,22.45
2022-09-24T08:44:02.984Z,23.15
2022-09-24T08:47:09.516Z,21.65
2022-09-24T08:49:50.059Z,19.50
2022-09-24T08:52:43.240Z,18.55
2022-09-24T08:55:23.914Z,18.75
2022-09-24T08:58:08.847Z,20.10
2022-09-24T09:00:45.998Z,20.48
2022-09-24T09:03:30.484Z,17.73
2022-09-24T09:06:04.178Z,18.85
2022-09-24T09:09:06.779Z,20.25
2022-09-24T09:11:37.487Z,20.48
2022-09-24T09:14:41.067Z,20.20
2022-09-24T09:17:32.832Z,21.40
2022-09-24T09:20:05.761Z,18.65
2022-09-24T09:22:44.408Z,22.45
2022-09-24T09:25:28.545Z,19.73
2022-09-24T09:28:02.974Z,16.15
2022-09-24T09:30:43.736Z,14.70
2022-09-24T09:33:34.938Z,17.05
2022-09-24T09:36:39.523Z,16.52
2022-09-24T09:39:18.708Z,16.65
2022-09-24T09:42:23.200Z,18.98
2022-09-24T09:44:50.541Z,19.85
2022-09-24T09:47:40.278Z,15.65
2022-09-24T09:50:26.521Z,14.48
2022-09-24T09:52:54.040Z,13.65
2022-09-24T09:55:36.974Z,17.40
2022-09-24T09:58:29.353Z,16.88
2022-09-24T10:01:15.702Z,14.07
2022-09-24T10:03:46.559Z,16.45
2022-09-24T10:06:29.262Z,17.13
2022-09-24T10:09:12.723Z,13.55
2022-09-24T10:11:40.497Z,15.57
2022-09-24T10:14:12.344Z,14.48
2022-09-24T10:16:55.212Z,14.90
2022-09-24T10:19:28.257Z,12.77
2022-09-24T10:21:59.940Z,12.77
2022-09-24T10:24:28.998Z,13.40
2022-09-24T10:26:56.114Z,11.73
2022-09-24T10:29:51.425Z,10.73
2022-09-24T10:32:22.778Z,10.88
2022-09-24T10:34:56.832Z,9.07
2022-09-24T10:37:24.156Z,12.48
2022-09-24T10:40:23.798Z,12.23
2022-09-24T10:43:03.142Z,9.93
2022-09-24T10:46:13.120Z,9.00
2022-09-24T10:49:05.814Z,8.40
2022-09-24T10:51:57.361Z,9.82
2022-09-24T10:54:33.576Z,10.73
2022-09-24T10:57:35.046Z,8.10
2022-09-24T11:00:23.223Z,9.82
2022-09-24T11:03:27.963Z,7.95
2022-09-24T11:06:05.489Z,7.93
2022-09-24T11:09:21.397Z,8.80
2022-09-24T11:12:25.909Z,8.90
2022-09-24T11:15:59.092Z,7.40
2022-09-24T11:18:46.134Z,9.60
2022-09-24T11:21:59.595Z,7.80
2022-09-24T11:25:19.641Z,7.45
2022-09-24T11:28:26.866Z,7.65
2022-09-24T11:31:19.311Z,7.97
2022-09-24T11:34:19.335Z,7.93
2022-09-24T11:37:15.466Z,5.20
2022-09-24T11:40:10.386Z,6.45
2022-09-24T11:43:04.582Z,8.07
2022-09-24T11:46:25.356Z,7.85
2022-09-24T11:49:29.076Z,4.78
2022-09-24T11:52:16.236Z,3.92
2022-09-24T11:55:19.081Z,3.60
2022-09-24T11:58:18.634Z,4.22
2022-09-24T12:01:10.256Z,5.32
2022-09-24T12:03:48.334Z,5.40
2022-09-24T12:06:25.664Z,5.18
2022-09-24T12:09:01.553Z,4.78
2022-09-24T12:11:36.218Z,4.15
2022-09-24T12:14:27.094Z,5.00
2022-09-24T12:17:01.791Z,4.60
2022-09-24T12:19:50.412Z,5.10
2022-09-24T12:22:20.606Z,6.63
2022-09-24T12:24:58.641Z,6.03
2022-09-24T12:27:39.899Z,6.32
2022-09-24T12:30:59.866Z,5.05
2022-09-24T12:34:10.241Z,4.13
2022-09-24T12:36:57.624Z,2.97
2022-09-24T12:39:33.507Z,4.40
2022-09-24T12:42:07.416Z,3.60
2022-09-24T12:44:55.875Z,5.85
2022-09-24T12:47:29.914Z,4.10
2022-09-24T12:50:04.554Z,4.22
2022-09-24T12:52:42.701Z,3.25
2022-09-24T12:55:34.921Z,3.72
2022-09-24T12:58:08.182Z,4.03
2022-09-24T13:00:47.464Z,4.63
2022-09-24T13:03:39.068Z,4.43
2022-09-24T13:06:30.406Z,4.20
2022-09-24T13:09:00.794Z,4.03
2022-09-24T13:11:36.687Z,4.47
2022-09-24T13:14:12.536Z,4.60
2022-09-24T13:16:43.430Z,6.53
2022-09-24T13:19:31.239Z,4.70
2022-09-24T13:22:00.886Z,4.78
2022-09-24T13:24:53.989Z,5.03
2022-09-24T13:27:37.893Z,3.70
2022-09-24T13:30:38.124Z,3.95
2022-09-24T13:33:31.973Z,7.05
2022-09-24T13:36:17.653Z,4.43
2022-09-24T13:39:11.454Z,4.95
2022-09-24T13:42:01.075Z,4.10
2022-09-24T13:44:40.717Z,5.20
2022-09-24T13:47:36.350Z,4.93
2022-09-24T13:50:24.865Z,3.17
2022-09-24T13:53:00.272Z,4.63
2022-09-24T13:55:43.399Z,3.63
2022-09-24T13:58:34.285Z,3.10
2022-09-24T14:01:10.213Z,5.25
2022-09-24T14:03:40.304Z,2.65
2022-09-24T14:06:16.606Z,3.72
2022-09-24T14:08:46.938Z,3.35
2022-09-24T14:11:19.641Z,4.28
2022-09-24T14:13:47.412Z,4.53
2022-09-24T14:16:20.279Z,2.70
2022-09-24T14:18:48.616Z,5.15
2022-09-24T14:21:36.477Z,2.97
2022-09-24T14:24:16.854Z,3.72
2022-09-24T14:26:57.342Z,4.25
2022-09-24T14:29:43.979Z,7.65
2022-09-24T14:32:29.741Z,3.88
2022-09-24T14:35:01.227Z,7.72
2022-09-24T14:37:50.101Z,2.85
2022-09-24T14:40:21.836Z,5.65
2022-09-24T14:42:55.720Z,2.90
2022-09-24T14:45:28.020Z,4.38
2022-09-24T14:48:04.388Z,5.18
2022-09-24T14:50:38.757Z,4.28
2022-09-24T14:53:22.490Z,6.72
2022-09-24T14:55:53.602Z,2.53
2022-09-24T14:58:31.350Z,3.10
2022-09-24T15:01:03.192Z,3.47
2022-09-24T15:03:38.264Z,5.28
2022-09-24T15:06:22.739Z,3.47
2022-09-24T15:09:07.792Z,3.60
2022-09-24T15:11:37.403Z,4.30
2022-09-24T15:14:25.057Z,2.85
2022-09-24T15:16:53.475Z,8.45
2022-09-24T15:19:28.765Z,4.53
2022-09-24T15:21:57.454Z,10.07
2022-09-24T15:24:25.293Z,5.53
2022-09-24T15:27:37.253Z,7.22
2022-09-24T15:30:07.962Z,4.15
2022-09-24T15:32:36.112Z,4.43
2022-09-24T15:35:09.486Z,9.10
2022-09-24T15:37:40.009Z,11.43
2022-09-24T15:40:25.522Z,7.43
2022-09-24T15:42:52.944Z,4.97
2022-09-24T15:45:23.770Z,3.28
2022-09-24T15:47:52.952Z,10.25
2022-09-24T15:50:22.728Z,9.75
2022-09-24T15:52:59.188Z,8.27
2022-09-24T15:55:26.664Z,8.10
2022-09-24T15:57:54.505Z,6.00
2022-09-24T16:00:24.980Z,6.13
2022-09-24T16:02:56.013Z,6.25
2022-09-24T16:05:25.284Z,8.25
2022-09-24T16:07:52.341Z,9.00
2022-09-24T16:10:19.590Z,10.70
2022-09-24T16:12:46.734Z,6.45
2022-09-24T16:15:16.272Z,5.60
2022-09-24T16:17:44.045Z,4.50
2022-09-24T16:20:11.294Z,7.35
2022-09-24T16:22:38.477Z,6.82
2022-09-24T16:25:06.365Z,6.80
2022-09-24T16:27:35.410Z,6.63
2022-09-24T16:30:06.407Z,7.60
2022-09-24T16:32:34.262Z,9.63
2022-09-24T16:35:01.434Z,8.38
2022-09-24T16:37:28.974Z,5.05
2022-09-24T16:39:56.266Z,5.50
2022-09-24T16:42:26.446Z,3.72
2022-09-24T16:44:53.589Z,6.68
2022-09-24T16:47:20.762Z,4.80
2022-09-24T16:49:48.205Z,5.75
2022-09-24T16:52:15.313Z,9.45
2022-09-24T16:54:42.322Z,10.68
2022-09-24T16:57:09.583Z,6.90
2022-09-24T16:59:36.613Z,4.78
2022-09-24T17:02:04.029Z,3.85
2022-09-24T17:04:31.102Z,6.93
2022-09-24T17:06:58.900Z,10.20
2022-09-24T17:09:44.677Z,5.53
2022-09-24T17:12:11.873Z,6.85
2022-09-24T17:14:39.010Z,8.30
2022-09-24T17:17:06.605Z,3.95
2022-09-24T17:19:33.696Z,8.25
2022-09-24T17:22:00.758Z,6.57
2022-09-24T17:24:27.941Z,15.30
2022-09-24T17:26:56.630Z,5.00
2022-09-24T17:29:30.340Z,5.90
2022-09-24T17:31:58.694Z,5.17
2022-09-24T17:34:25.849Z,5.30
2022-09-24T17:36:52.890Z,7.03
2022-09-24T17:39:19.947Z,8.88
2022-09-24T17:41:47.122Z,9.13
2022-09-24T17:44:14.411Z,5.30
2022-09-24T17:46:41.560Z,4.30
2022-09-24T17:49:10.092Z,4.28
2022-09-24T17:51:38.121Z,10.70
2022-09-24T17:54:11.560Z,4.13
2022-09-24T17:56:39.190Z,6.75
2022-09-24T17:59:09.743Z,8.55
2022-09-24T18:01:39.199Z,4.05
2022-09-24T18:04:11.380Z,5.65
2022-09-24T18:06:40.857Z,6.43
2022-09-24T18:09:09.718Z,4.45
2022-09-24T18:11:51.392Z,5.82
2022-09-24T18:14:21.986Z,9.65
2022-09-24T18:16:50.535Z,2.53
2022-09-24T18:19:18.119Z,3.20
2022-09-24T18:21:47.020Z,5.18
2022-09-24T18:24:16.399Z,6.53
2022-09-24T18:26:43.823Z,2.40
2022-09-24T18:29:16.503Z,4.53
2022-09-24T18:31:44.838Z,4.13
2022-09-24T18:34:15.441Z,3.03
2022-09-24T18:36:44.796Z,9.25
2022-09-24T18:39:15.240Z,9.38
2022-09-24T18:41:44.648Z,6.45
2022-09-24T18:44:11.755Z,6.50
2022-09-24T18:46:39.489Z,6.93
2022-09-24T18:49:06.962Z,1.63
2022-09-24T18:51:37.733Z,6.32
2022-09-24T18:54:10.926Z,9.15
2022-09-24T18:56:38.097Z,4.57
2022-09-24T18:59:10.244Z,13.23
2022-09-24T19:01:39.449Z,12.90
2022-09-24T19:04:10.899Z,3.83
2022-09-24T19:06:40.851Z,8.00
2022-09-24T19:09:09.907Z,13.13
2022-09-24T19:11:37.017Z,4.50
2022-09-24T19:14:04.164Z,7.95
2022-09-24T19:16:31.620Z,7.88
2022-09-24T19:19:00.589Z,5.10
2022-09-24T19:21:27.941Z,9.68
2022-09-24T19:23:57.937Z,2.13
2022-09-24T19:26:31.621Z,6.85
2022-09-24T19:28:59.414Z,3.28
2022-09-24T19:31:43.111Z,5.90
2022-09-24T19:34:12.859Z,4.60
2022-09-24T19:36:44.928Z,9.88
2022-09-24T19:39:15.610Z,5.45
2022-09-24T19:41:43.608Z,5.68
2022-09-24T19:44:11.607Z,6.75
2022-09-24T19:46:39.478Z,5.32
2022-09-24T19:49:07.332Z,5.18
2022-09-24T19:51:35.769Z,5.82
2022-09-24T19:54:09.136Z,7.40
2022-09-24T19:56:37.061Z,8.65
2022-09-24T19:59:05.252Z,6.00
2022-09-24T20:01:33.759Z,4.18
2022-09-24T20:04:06.227Z,8.95
2022-09-24T20:06:35.999Z,4.28
2022-09-24T20:09:03.084Z,5.20
2022-09-24T20:11:32.637Z,7.13
2022-09-24T20:14:01.333Z,6.63
2022-09-24T20:16:32.990Z,10.57
2022-09-24T20:19:02.096Z,6.50
2022-09-24T20:21:34.967Z,4.68
2022-09-24T20:24:03.878Z,7.90
2022-09-24T20:26:49.890Z,8.07
2022-09-24T20:29:19.557Z,18.02
2022-09-24T20:31:53.027Z,8.77
2022-09-24T20:34:24.691Z,5.03
2022-09-24T20:36:52.213Z,7.30
2022-09-24T20:39:20.083Z,8.75
2022-09-24T20:41:49.482Z,9.48
2022-09-24T20:44:17.476Z,10.32
2022-09-24T20:46:44.470Z,10.07
2022-09-24T20:49:22.372Z,6.72
2022-09-24T20:51:57.087Z,7.68
2022-09-24T20:54:26.170Z,9.30
2022-09-24T20:56:53.143Z,9.88
2022-09-24T20:59:20.156Z,8.82
2022-09-24T21:01:48.046Z,6.00
2022-09-24T21:04:15.079Z,4.00
2022-09-24T21:06:41.938Z,9.80
2022-09-24T21:09:08.850Z,8.98
2022-09-24T21:11:35.768Z,8.35
2022-09-24T21:14:03.091Z,6.63
2022-09-24T21:16:34.045Z,9.15
2022-09-24T21:19:04.696Z,5.25
2022-09-24T21:21:38.251Z,10.52
2022-09-24T21:24:07.680Z,6.90
2022-09-24T21:26:37.506Z,6.55
2022-09-24T21:29:11.698Z,5.38
2022-09-24T21:31:40.033Z,10.45
2022-09-24T21:34:08.193Z,6.20
2022-09-24T21:36:44.696Z,4.47
2022-09-24T21:39:22.982Z,8.93
2022-09-24T21:41:52.528Z,4.13
2022-09-24T21:44:19.838Z,5.93
2022-09-24T21:46:47.837Z,6.53
2022-09-24T21:49:16.952Z,6.55
2022-09-24T21:51:44.232Z,6.45
2022-09-24T21:54:16.915Z,12.25
2022-09-24T21:56:44.766Z,5.85
2022-09-24T21:59:30.275Z,8.77
2022-09-24T22:01:57.143Z,4.97
2022-09-24T22:04:24.063Z,7.85
2022-09-24T22:06:51.436Z,7.50
2022-09-24T22:09:18.963Z,4.78
2022-09-24T22:11:46.797Z,6.10
2022-09-24T22:14:14.598Z,11.73
2022-09-24T22:16:41.837Z,5.38
2022-09-24T22:19:11.653Z,9.23
2022-09-24T22:21:38.580Z,5.80
2022-09-24T22:24:05.798Z,4.85
2022-09-24T22:26:32.919Z,6.07
2022-09-24T22:29:02.027Z,7.95
2022-09-24T22:31:28.955Z,8.02
2022-09-24T22:34:14.784Z,10.90
2022-09-24T22:36:41.655Z,7.95
2022-09-24T22:39:09.504Z,7.85
2022-09-24T22:41:39.921Z,15.07
2022-09-24T22:44:07.681Z,4.55
2022-09-24T22:46:36.299Z,12.13
2022-09-24T22:49:05.289Z,7.20
2022-09-24T22:51:32.584Z,8.35
2022-09-24T22:54:00.214Z,10.52
2022-09-24T22:56:28.453Z,10.32
2022-09-24T22:59:00.646Z,4.28
2022-09-24T23:01:34.103Z,8.15
2022-09-24T23:04:02.345Z,10.65
2022-09-24T23:06:31.328Z,11.57
2022-09-24T23:08:58.647Z,3.63
2022-09-24T23:11:32.185Z,7.38
2022-09-24T23:14:11.815Z,6.55
2022-09-24T23:16:39.102Z,6.43
2022-09-24T23:19:12.861Z,6.28
2022-09-24T23:21:39.793Z,7.55
2022-09-24T23:24:34.478Z,13.68
2022-09-24T23:27:01.361Z,7.35
2022-09-24T23:29:28.378Z,5.20
2022-09-24T23:31:55.586Z,22.90
2022-09-24T23:34:22.591Z,19.77
2022-09-24T23:36:49.499Z,11.88
2022-09-24T23:39:16.350Z,5.72
2022-09-24T23:41:43.314Z,58.08
2022-09-24T23:44:10.833Z,9.40
2022-09-24T23:46:38.090Z,12.32
2022-09-24T23:49:04.959Z,14.02
2022-09-24T23:51:31.883Z,5.65
2022-09-24T23:53:58.739Z,5.95
2022-09-24T23:56:25.797Z,12.70
2022-09-24T23:58:52.670Z,6.15
